Time;durP1;ratioP1;P1;durP2;ratioP2;P2;SDS_P1;SDS_P2;PMS_P1;PMS_P2;Temp;Humidity;BMP_temperature;BMP_pressure;BME280_temperature;BME280_humidity;BME280_pressure;Samples;Min_cycle;Max_cycle;Signal;HPM_P1;HPM_P2
2022/08/15 00:00:52;;;;;;;13.98;7.82;;;22.10;99.90;;;;;;4980442;28;20380;-90
2022/08/15 00:03:22;;;;;;;12.38;7.88;;;21.80;99.90;;;;;;4994481;28;20081;-90
2022/08/15 00:05:48;;;;;;;13.80;8.10;;;21.80;99.90;;;;;;4992673;28;20102;-91
2022/08/15 00:08:14;;;;;;;12.32;7.60;;;21.90;99.90;;;;;;4984087;28;20444;-91
2022/08/15 00:10:44;;;;;;;12.25;7.93;;;21.80;99.90;;;;;;4979081;28;20054;-90
2022/08/15 00:13:22;;;;;;;13.45;8.07;;;21.90;99.90;;;;;;4979111;28;20046;-91
2022/08/15 00:15:49;;;;;;;13.23;8.02;;;21.90;99.90;;;;;;4994903;28;20046;-91
2022/08/15 00:18:16;;;;;;;13.48;7.40;;;21.90;99.90;;;;;;4982623;28;20621;-91
2022/08/15 00:20:42;;;;;;;11.98;8.20;;;21.90;99.90;;;;;;4996059;28;20042;-91
2022/08/15 00:23:14;;;;;;;15.02;7.93;;;22.00;99.90;;;;;;4977468;28;20053;-91
2022/08/15 00:25:40;;;;;;;12.55;7.63;;;22.10;99.90;;;;;;4978330;28;20158;-91
2022/08/15 00:28:07;;;;;;;11.90;7.72;;;21.90;99.90;;;;;;4981653;28;20405;-90
2022/08/15 00:30:34;;;;;;;13.32;7.85;;;22.00;99.90;;;;;;4980279;28;20494;-90
2022/08/15 00:33:00;;;;;;;13.27;8.43;;;22.20;99.90;;;;;;4995630;28;20046;-91
2022/08/15 00:35:39;;;;;;;14.00;7.65;;;21.90;99.90;;;;;;4994478;28;20053;-91
2022/08/15 00:38:15;;;;;;;12.63;8.38;;;21.90;99.90;;;;;;4995976;28;20082;-90
2022/08/15 00:43:31;;;;;;;12.73;8.25;;;21.90;99.90;;;;;;4976544;28;20050;-90
2022/08/15 00:45:56;;;;;;;12.65;8.05;;;21.80;99.90;;;;;;4995678;28;20123;-91
2022/08/15 00:51:19;;;;;;;15.13;8.43;;;21.80;99.90;;;;;;4996290;28;20046;-90
2022/08/15 00:53:49;;;;;;;13.07;8.23;;;21.80;99.90;;;;;;4998305;28;20101;-91
2022/08/15 00:56:16;;;;;;;13.70;8.73;;;21.90;99.90;;;;;;4993928;28;20042;-92
2022/08/15 00:58:44;;;;;;;13.40;8.85;;;21.80;99.90;;;;;;4977479;28;20054;-91
2022/08/15 01:01:14;;;;;;;13.73;8.32;;;21.80;99.90;;;;;;4978650;28;20090;-91
2022/08/15 01:03:44;;;;;;;14.32;8.45;;;21.70;99.90;;;;;;4976591;28;20101;-91
2022/08/15 01:06:25;;;;;;;12.82;8.32;;;21.80;99.90;;;;;;4977463;28;20045;-91
2022/08/15 01:08:51;;;;;;;11.95;7.95;;;21.80;99.90;;;;;;4995066;28;20173;-91
2022/08/15 01:11:24;;;;;;;12.82;8.30;;;21.70;99.90;;;;;;4976921;28;20498;-91
2022/08/15 01:13:52;;;;;;;13.57;7.82;;;21.70;99.90;;;;;;5017045;28;20061;-90
2022/08/15 01:16:18;;;;;;;11.70;7.75;;;21.70;99.90;;;;;;4996154;28;20553;-91
2022/08/15 01:18:45;;;;;;;12.70;7.78;;;21.80;99.90;;;;;;4976474;28;20046;-88
2022/08/15 01:21:31;;;;;;;11.95;7.55;;;21.80;99.90;;;;;;4977215;28;20053;-88
2022/08/15 01:24:08;;;;;;;13.25;8.38;;;21.80;99.90;;;;;;4994612;28;20169;-88
2022/08/15 01:26:34;;;;;;;11.95;7.80;;;21.80;99.90;;;;;;4975876;28;20805;-88
2022/08/15 01:29:00;;;;;;;12.38;7.40;;;22.00;99.90;;;;;;4977048;28;20038;-88
2022/08/15 01:31:26;;;;;;;13.50;7.15;;;21.90;99.90;;;;;;4993195;28;20042;-87
2022/08/15 01:33:58;;;;;;;11.93;7.40;;;22.20;99.90;;;;;;4976784;28;20060;-88
2022/08/15 01:36:26;;;;;;;11.63;7.13;;;22.10;99.90;;;;;;4976699;28;20049;-91
2022/08/15 01:39:27;;;;;;;11.90;7.45;;;22.10;99.90;;;;;;4993661;28;20054;-91
2022/08/15 01:42:14;;;;;;;12.20;7.72;;;22.10;99.90;;;;;;4990559;28;20062;-91
2022/08/15 01:44:45;;;;;;;12.48;8.10;;;22.10;99.90;;;;;;4993936;28;20054;-90
2022/08/15 01:47:29;;;;;;;13.52;7.60;;;22.10;99.90;;;;;;4976550;28;20137;-90
2022/08/15 01:50:07;;;;;;;11.73;7.72;;;22.00;99.90;;;;;;4976952;28;20498;-90
2022/08/15 01:52:50;;;;;;;13.85;7.78;;;22.10;99.90;;;;;;4993018;28;20100;-90
2022/08/15 01:55:17;;;;;;;13.40;8.15;;;22.00;99.90;;;;;;4993929;28;20050;-91
2022/08/15 01:57:43;;;;;;;14.63;8.57;;;21.90;99.90;;;;;;4976194;28;20537;-90
2022/08/15 02:00:10;;;;;;;12.40;7.93;;;21.90;99.90;;;;;;4975512;28;20141;-90
2022/08/15 02:02:37;;;;;;;12.85;7.85;;;21.80;99.90;;;;;;4993428;28;20454;-90
2022/08/15 02:05:03;;;;;;;13.95;8.48;;;21.80;99.90;;;;;;4975850;28;20046;-91
2022/08/15 02:07:29;;;;;;;12.43;7.53;;;21.70;99.90;;;;;;4974374;28;20043;-88
2022/08/15 02:09:56;;;;;;;13.95;8.05;;;21.70;99.90;;;;;;4976179;28;20042;-88
2022/08/15 02:12:34;;;;;;;12.98;8.20;;;21.60;99.90;;;;;;4976628;28;20166;-90
2022/08/15 02:15:13;;;;;;;12.45;7.75;;;21.60;99.90;;;;;;4975651;28;20406;-91
2022/08/15 02:17:40;;;;;;;13.35;7.75;;;21.50;99.90;;;;;;4976055;28;20536;-90
2022/08/15 02:20:06;;;;;;;12.85;7.88;;;21.40;99.90;;;;;;4980150;28;20049;-91
2022/08/15 02:22:32;;;;;;;13.55;8.00;;;21.40;99.90;;;;;;4992694;28;20062;-90
2022/08/15 02:24:59;;;;;;;12.02;7.50;;;21.40;99.90;;;;;;4994780;28;20100;-90
2022/08/15 02:27:27;;;;;;;12.10;7.47;;;21.30;99.90;;;;;;4977435;28;20053;-90
2022/08/15 02:29:53;;;;;;;11.02;6.88;;;21.20;99.90;;;;;;4979855;28;20387;-91
2022/08/15 02:32:19;;;;;;;11.40;7.45;;;21.40;99.90;;;;;;4976392;28;20056;-90
2022/08/15 02:34:47;;;;;;;11.55;7.38;;;21.10;99.90;;;;;;4993511;28;20042;-90
2022/08/15 02:37:18;;;;;;;11.40;7.30;;;21.00;99.90;;;;;;4982185;28;20122;-90
2022/08/15 02:39:49;;;;;;;12.95;7.35;;;21.00;99.90;;;;;;4985274;28;20074;-90
2022/08/15 02:42:19;;;;;;;12.60;7.60;;;20.80;99.90;;;;;;4992461;28;20042;-90
2022/08/15 02:44:50;;;;;;;12.88;7.43;;;21.00;99.90;;;;;;4976453;28;20038;-90
2022/08/15 02:47:18;;;;;;;12.93;7.68;;;21.10;99.90;;;;;;4975949;28;20042;-90
2022/08/15 02:49:44;;;;;;;11.88;7.38;;;20.60;99.90;;;;;;4989349;28;20045;-90
2022/08/15 02:52:11;;;;;;;12.18;7.80;;;20.60;99.90;;;;;;4986943;28;20066;-90
2022/08/15 02:54:38;;;;;;;11.10;7.07;;;20.50;99.90;;;;;;4994010;28;20042;-90
2022/08/15 02:57:04;;;;;;;12.45;7.45;;;20.60;99.90;;;;;;4992419;28;20047;-91
2022/08/15 02:59:30;;;;;;;12.70;7.18;;;20.40;99.90;;;;;;4975324;28;20129;-91
2022/08/15 03:01:57;;;;;;;11.60;7.03;;;20.30;99.90;;;;;;4975772;28;20090;-90
2022/08/15 03:04:25;;;;;;;13.07;7.70;;;20.30;99.90;;;;;;4978327;28;20051;-90
2022/08/15 03:06:53;;;;;;;13.40;7.43;;;20.30;99.90;;;;;;5007327;28;20046;-90
2022/08/15 03:09:21;;;;;;;11.60;7.32;;;20.30;99.90;;;;;;4995722;28;20081;-90
2022/08/15 03:11:47;;;;;;;12.02;7.22;;;20.40;99.90;;;;;;4975474;28;20049;-90
2022/08/15 03:14:16;;;;;;;12.48;7.75;;;20.30;99.90;;;;;;4993023;28;20490;-90
2022/08/15 03:16:45;;;;;;;12.23;7.18;;;20.20;99.90;;;;;;4975611;28;20487;-90
2022/08/15 03:19:16;;;;;;;13.63;7.45;;;20.10;99.90;;;;;;4977084;28;20100;-91
2022/08/15 03:21:42;;;;;;;11.52;7.07;;;20.10;99.90;;;;;;4979228;28;20050;-91
2022/08/15 03:24:08;;;;;;;12.55;7.82;;;20.30;99.90;;;;;;4996374;28;20046;-91
2022/08/15 03:26:34;;;;;;;12.35;7.32;;;20.10;99.90;;;;;;4996619;28;20089;-90
2022/08/15 03:29:00;;;;;;;11.77;7.68;;;20.00;99.90;;;;;;4979184;28;20054;-90
2022/08/15 03:31:26;;;;;;;13.27;7.43;;;20.30;99.90;;;;;;4995816;28;20042;-90
2022/08/15 03:33:52;;;;;;;12.30;8.05;;;20.10;99.90;;;;;;4978711;28;20064;-90
2022/08/15 03:36:21;;;;;;;12.52;7.75;;;19.90;99.90;;;;;;4995916;28;20049;-90
2022/08/15 03:38:47;;;;;;;13.85;8.35;;;20.00;99.90;;;;;;4978218;28;20077;-91
2022/08/15 03:41:16;;;;;;;15.82;8.05;;;19.90;99.90;;;;;;4996412;28;20089;-91
2022/08/15 03:43:43;;;;;;;14.95;7.82;;;19.90;99.90;;;;;;4995991;28;20598;-90
2022/08/15 03:46:11;;;;;;;14.88;8.40;;;20.00;99.90;;;;;;4978102;28;20062;-91
2022/08/15 03:48:40;;;;;;;15.00;7.95;;;19.90;99.90;;;;;;4978815;28;20553;-87
2022/08/15 03:51:08;;;;;;;13.10;7.82;;;20.30;99.90;;;;;;4978683;28;20154;-88
2022/08/15 03:53:38;;;;;;;12.73;7.85;;;19.80;99.90;;;;;;4995003;28;20442;-87
2022/08/15 03:56:06;;;;;;;13.45;7.93;;;20.10;99.90;;;;;;4978617;28;20038;-88
2022/08/15 03:58:31;;;;;;;13.30;7.70;;;19.90;99.90;;;;;;4978110;28;20054;-90
2022/08/15 04:00:58;;;;;;;12.25;7.55;;;19.80;99.90;;;;;;4993323;28;20054;-91
2022/08/15 04:03:28;;;;;;;13.55;8.25;;;19.90;99.90;;;;;;4988342;28;20082;-90
2022/08/15 04:06:00;;;;;;;13.50;8.10;;;19.80;99.90;;;;;;4958575;28;20038;-91
2022/08/15 04:08:30;;;;;;;15.55;8.15;;;19.70;99.90;;;;;;4957802;28;20051;-90
2022/08/15 04:10:56;;;;;;;15.13;8.40;;;19.70;99.90;;;;;;4976374;28;20086;-91
2022/08/15 04:13:24;;;;;;;13.25;8.23;;;19.70;99.90;;;;;;4971185;28;20405;-90
2022/08/15 04:15:55;;;;;;;14.23;8.70;;;19.60;99.90;;;;;;4995879;28;20097;-87
2022/08/15 04:18:22;;;;;;;14.02;8.70;;;19.70;99.90;;;;;;4978826;28;20046;-88
2022/08/15 04:20:48;;;;;;;13.77;9.48;;;19.70;99.90;;;;;;4982226;28;20046;-88
2022/08/15 04:23:14;;;;;;;15.35;8.90;;;19.70;99.90;;;;;;4978818;28;20048;-88
2022/08/15 04:25:42;;;;;;;15.73;9.40;;;19.70;99.90;;;;;;4997998;28;20042;-87
2022/08/15 04:28:09;;;;;;;13.95;9.27;;;19.80;99.90;;;;;;4999134;28;20102;-87
2022/08/15 04:30:38;;;;;;;14.77;9.38;;;19.80;99.90;;;;;;5001540;28;20049;-88
2022/08/15 04:33:13;;;;;;;14.73;9.23;;;19.80;99.90;;;;;;4996685;28;20486;-87
2022/08/15 04:35:41;;;;;;;17.15;9.45;;;19.90;99.90;;;;;;4977355;28;20046;-88
2022/08/15 04:38:07;;;;;;;15.95;9.27;;;20.30;99.90;;;;;;4977873;28;20042;-88
2022/08/15 04:40:33;;;;;;;15.10;8.95;;;19.90;99.90;;;;;;4995752;28;20096;-88
2022/08/15 04:42:59;;;;;;;15.02;8.95;;;20.00;99.90;;;;;;4977171;28;20129;-90
2022/08/15 04:45:27;;;;;;;15.40;9.23;;;20.10;99.90;;;;;;4995234;28;20158;-90
2022/08/15 04:47:53;;;;;;;15.32;9.15;;;20.10;99.90;;;;;;4977986;28;20065;-90
2022/08/15 04:50:19;;;;;;;15.15;9.18;;;20.20;99.90;;;;;;4976844;28;20045;-90
2022/08/15 04:52:51;;;;;;;14.25;9.43;;;20.20;99.90;;;;;;4978386;28;20069;-91
2022/08/15 04:55:19;;;;;;;15.77;8.75;;;20.30;99.90;;;;;;4979815;28;20479;-90
2022/08/15 04:57:45;;;;;;;14.80;9.57;;;20.90;99.90;;;;;;4997277;28;20100;-91
2022/08/15 05:00:14;;;;;;;15.45;9.05;;;20.80;99.90;;;;;;4979734;28;20085;-91
2022/08/15 05:02:39;;;;;;;14.27;9.30;;;20.40;99.90;;;;;;4997765;28;20061;-90
2022/08/15 05:05:07;;;;;;;14.80;9.68;;;20.50;99.90;;;;;;4996366;28;20038;-90
2022/08/15 05:07:34;;;;;;;15.27;9.40;;;20.50;99.90;;;;;;4977653;28;20402;-90
2022/08/15 05:10:01;;;;;;;14.43;9.10;;;20.60;99.90;;;;;;4962856;23;20133;-90
2022/08/15 05:12:28;;;;;;;15.27;9.50;;;20.60;99.90;;;;;;4974707;28;20507;-90
2022/08/15 05:14:54;;;;;;;16.48;9.55;;;21.30;99.90;;;;;;4958070;28;20137;-91
2022/08/15 05:17:19;;;;;;;14.50;9.43;;;20.70;99.90;;;;;;4956835;28;20126;-91
2022/08/15 05:19:45;;;;;;;17.05;8.93;;;20.70;99.90;;;;;;4957868;28;20123;-91
2022/08/15 05:22:11;;;;;;;14.30;9.25;;;20.90;99.90;;;;;;4975460;28;20057;-91
2022/08/15 05:24:38;;;;;;;16.08;9.93;;;20.80;99.90;;;;;;4974351;28;20035;-91
2022/08/15 05:27:05;;;;;;;16.45;9.50;;;20.90;99.90;;;;;;4975435;28;20054;-91
2022/08/15 05:29:31;;;;;;;14.82;9.65;;;20.90;99.90;;;;;;4975333;28;20085;-89
2022/08/15 05:31:58;;;;;;;15.15;9.43;;;21.00;99.90;;;;;;4974822;28;20082;-90
2022/08/15 05:34:23;;;;;;;14.50;9.15;;;21.00;99.90;;;;;;4957166;28;20055;-91
2022/08/15 05:36:49;;;;;;;15.50;10.18;;;21.00;99.90;;;;;;4978436;28;20120;-91
2022/08/15 05:39:24;;;;;;;14.70;9.10;;;21.00;99.90;;;;;;4956349;28;20133;-90
2022/08/15 05:41:54;;;;;;;16.42;10.13;;;21.20;99.90;;;;;;4957273;28;20038;-91
2022/08/15 05:44:45;;;;;;;14.13;8.75;;;21.00;99.90;;;;;;4974250;28;20522;-89
2022/08/15 05:47:30;;;;;;;15.07;9.23;;;21.10;99.90;;;;;;4957601;28;20051;-90
2022/08/15 05:50:07;;;;;;;14.57;9.32;;;21.10;99.90;;;;;;4956685;28;20102;-88
2022/08/15 05:52:56;;;;;;;14.73;9.95;;;21.10;99.90;;;;;;4955743;28;20056;-87
2022/08/15 05:55:56;;;;;;;15.82;9.93;;;21.10;99.90;;;;;;4955695;28;20804;-83
2022/08/15 05:58:37;;;;;;;15.30;9.80;;;21.20;99.90;;;;;;4973763;28;20078;-82
2022/08/15 06:01:14;;;;;;;14.77;9.73;;;21.30;99.90;;;;;;4956965;28;20043;-84
2022/08/15 06:03:45;;;;;;;16.27;10.65;;;21.30;99.90;;;;;;4959251;28;20497;-83
2022/08/15 06:06:14;;;;;;;14.77;9.82;;;21.40;99.90;;;;;;4975266;28;20402;-82
2022/08/15 06:08:50;;;;;;;15.48;10.45;;;21.40;99.90;;;;;;4974262;28;20059;-87
2022/08/15 06:11:26;;;;;;;15.82;10.10;;;21.50;99.90;;;;;;4957467;28;20066;-83
2022/08/15 06:14:14;;;;;;;14.80;10.15;;;21.60;99.90;;;;;;4973393;28;20507;-84
2022/08/15 06:16:47;;;;;;;14.05;9.77;;;21.60;99.90;;;;;;4974307;28;20050;-82
2022/08/15 06:19:30;;;;;;;14.48;9.90;;;21.70;99.90;;;;;;4957090;28;20046;-81
2022/08/15 06:22:34;;;;;;;16.40;9.43;;;21.80;99.90;;;;;;4972916;28;20483;-82
2022/08/15 06:25:21;;;;;;;16.17;9.07;;;21.70;99.90;;;;;;4956704;28;20121;-83
2022/08/15 06:28:00;;;;;;;15.20;10.07;;;21.90;99.90;;;;;;4955784;28;20050;-82
2022/08/15 06:30:45;;;;;;;15.75;10.43;;;21.90;99.90;;;;;;4973960;28;20106;-82
2022/08/15 06:33:40;;;;;;;15.38;10.25;;;22.00;99.90;;;;;;4956861;28;20082;-84
2022/08/15 06:36:33;;;;;;;14.93;10.55;;;22.00;99.90;;;;;;4955910;28;20058;-83
2022/08/15 06:39:06;;;;;;;15.98;10.18;;;22.10;99.90;;;;;;4956675;28;20082;-84
2022/08/15 06:41:42;;;;;;;16.88;10.43;;;22.10;99.90;;;;;;4972034;28;20039;-83
2022/08/15 06:44:10;;;;;;;15.15;10.50;;;22.10;99.90;;;;;;4955669;28;20105;-83
2022/08/15 06:46:37;;;;;;;15.10;10.05;;;22.20;99.90;;;;;;4973265;28;20094;-83
2022/08/15 06:49:10;;;;;;;14.55;10.00;;;22.20;99.90;;;;;;4955751;28;20058;-84
2022/08/15 06:51:38;;;;;;;15.25;9.85;;;22.30;99.90;;;;;;4973234;28;20049;-83
2022/08/15 06:54:06;;;;;;;14.32;10.02;;;22.40;99.90;;;;;;4975701;28;20139;-84
2022/08/15 06:56:52;;;;;;;16.00;9.77;;;22.40;99.90;;;;;;4976370;28;20082;-84
2022/08/15 06:59:40;;;;;;;15.55;9.57;;;22.50;99.90;;;;;;4977526;28;20143;-84
2022/08/15 07:02:33;;;;;;;14.57;9.18;;;22.60;99.90;;;;;;4959703;28;20426;-85
2022/08/15 07:05:18;;;;;;;16.20;9.05;;;22.70;99.90;;;;;;4960340;28;20055;-86
2022/08/15 07:07:58;;;;;;;13.90;9.13;;;22.80;99.90;;;;;;4960026;28;20050;-84
2022/08/15 07:10:39;;;;;;;13.55;8.98;;;22.90;99.90;;;;;;4958705;28;20063;-85
2022/08/15 07:13:14;;;;;;;12.57;8.23;;;23.10;99.90;;;;;;4958277;28;20089;-82
2022/08/15 07:15:56;;;;;;;15.98;8.88;;;23.20;99.90;;;;;;4959245;28;20467;-81
2022/08/15 07:18:34;;;;;;;14.25;8.35;;;23.20;99.90;;;;;;4958180;28;20058;-82
2022/08/15 07:21:05;;;;;;;14.05;8.30;;;23.20;99.90;;;;;;4940814;28;20047;-83
2022/08/15 07:23:33;;;;;;;14.15;8.10;;;23.40;99.90;;;;;;4937781;29;20051;-83
2022/08/15 07:26:09;;;;;;;12.88;8.82;;;23.50;99.90;;;;;;4969926;28;20035;-83
2022/08/15 07:28:37;;;;;;;14.45;8.52;;;23.50;99.90;;;;;;4975930;28;20049;-83
2022/08/15 07:31:18;;;;;;;13.05;8.70;;;23.50;99.90;;;;;;4958247;28;20054;-84
2022/08/15 07:33:50;;;;;;;14.30;9.60;;;23.70;99.90;;;;;;4945310;28;20055;-83
2022/08/15 07:36:20;;;;;;;16.85;10.05;;;23.80;99.90;;;;;;4975761;28;20053;-83
2022/08/15 07:38:47;;;;;;;19.50;9.93;;;23.80;99.90;;;;;;4957782;28;20046;-82
2022/08/15 07:41:22;;;;;;;15.75;9.85;;;23.90;99.90;;;;;;4959203;28;20123;-83
2022/08/15 07:43:50;;;;;;;16.67;9.38;;;24.00;99.90;;;;;;4958643;28;20137;-82
2022/08/15 07:46:36;;;;;;;14.43;10.15;;;24.00;99.90;;;;;;4975070;28;20035;-83
2022/08/15 07:49:19;;;;;;;14.32;9.77;;;24.10;99.90;;;;;;4959075;28;20047;-83
2022/08/15 07:51:57;;;;;;;13.68;9.20;;;24.30;99.90;;;;;;4958184;28;20050;-84
2022/08/15 07:54:48;;;;;;;14.20;9.65;;;24.30;99.90;;;;;;4958664;28;20182;-84
2022/08/15 07:57:35;;;;;;;15.30;9.45;;;24.30;99.90;;;;;;4958985;28;20043;-84
2022/08/15 08:00:18;;;;;;;13.73;9.20;;;24.40;99.90;;;;;;4958256;28;20101;-83
2022/08/15 08:03:06;;;;;;;14.82;9.07;;;24.50;99.90;;;;;;4976062;28;20046;-83
2022/08/15 08:05:40;;;;;;;12.95;8.80;;;24.60;99.90;;;;;;4956702;28;20106;-83
2022/08/15 08:08:08;;;;;;;14.10;8.75;;;24.80;99.90;;;;;;4976292;28;20383;-83
2022/08/15 08:10:53;;;;;;;14.70;9.00;;;25.10;99.90;;;;;;4975535;28;20125;-83
2022/08/15 08:13:44;;;;;;;13.95;9.60;;;25.10;99.90;;;;;;4957391;28;20058;-84
2022/08/15 08:16:28;;;;;;;13.73;8.93;;;25.30;99.90;;;;;;4958843;28;20058;-84
2022/08/15 08:19:14;;;;;;;13.60;9.15;;;25.40;99.90;;;;;;4958592;28;20051;-83
2022/08/15 08:22:18;;;;;;;20.88;9.15;;;25.30;99.90;;;;;;4972700;28;20054;-83
2022/08/15 08:25:14;;;;;;;15.05;8.65;;;25.40;99.90;;;;;;4975774;28;20060;-81
2022/08/15 08:28:08;;;;;;;13.73;8.85;;;25.50;99.90;;;;;;4963225;28;20513;-84
2022/08/15 08:30:39;;;;;;;;;;;25.60;99.90;;;;;;4958003;28;20042;-85
2022/08/15 08:33:09;;;;;;;12.95;8.70;;;25.60;99.90;;;;;;4957643;28;19921;-85
2022/08/15 08:35:54;;;;;;;13.27;8.38;;;25.70;99.90;;;;;;4974667;28;20054;-85
2022/08/15 08:38:45;;;;;;;13.55;9.32;;;25.80;99.90;;;;;;4957739;28;20078;-85
2022/08/15 08:41:35;;;;;;;12.75;8.10;;;25.70;99.90;;;;;;4957403;28;20439;-84
2022/08/15 08:44:14;;;;;;;13.57;8.27;;;25.80;99.90;;;;;;4958052;28;20105;-83
2022/08/15 08:47:06;;;;;;;17.25;9.30;;;25.80;99.90;;;;;;4958421;28;20126;-84
2022/08/15 08:50:05;;;;;;;13.13;8.32;;;25.80;99.90;;;;;;4957379;28;20085;-81
2022/08/15 08:52:48;;;;;;;12.55;8.27;;;25.70;99.90;;;;;;4975066;28;20049;-84
2022/08/15 08:55:28;;;;;;;15.00;9.35;;;25.60;99.90;;;;;;4957063;28;20569;-84
2022/08/15 08:58:02;;;;;;;13.77;9.10;;;25.60;99.90;;;;;;4975391;28;20131;-84
2022/08/15 09:00:36;;;;;;;14.77;9.35;;;25.50;99.90;;;;;;4974979;28;20050;-83
2022/08/15 09:03:12;;;;;;;13.15;9.07;;;25.40;99.90;;;;;;4957141;28;20125;-83
2022/08/15 09:05:51;;;;;;;15.13;8.95;;;25.60;99.90;;;;;;4957354;28;20090;-86
2022/08/15 09:08:41;;;;;;;13.02;9.00;;;26.00;99.90;;;;;;4956626;28;20034;-85
2022/08/15 09:11:26;;;;;;;13.02;9.23;;;26.40;99.90;;;;;;4937839;29;20509;-83
2022/08/15 09:13:55;;;;;;;12.82;9.00;;;26.60;99.90;;;;;;4938230;29;20129;-83
2022/08/15 09:16:36;;;;;;;14.15;8.90;;;26.60;99.90;;;;;;4954221;28;20070;-83
2022/08/15 09:19:04;;;;;;;14.27;9.23;;;26.80;99.90;;;;;;4958347;29;20051;-86
2022/08/15 09:21:31;;;;;;;12.98;8.75;;;27.00;99.90;;;;;;4959400;29;20078;-85
2022/08/15 09:23:59;;;;;;;15.55;9.98;;;27.20;99.90;;;;;;4938300;29;20053;-87
2022/08/15 09:26:53;;;;;;;14.85;9.65;;;27.30;99.90;;;;;;4937264;29;20563;-92
2022/08/15 09:29:46;;;;;;;18.15;11.82;;;27.40;99.90;;;;;;4954789;29;20087;-90
2022/08/15 09:32:49;;;;;;;19.05;11.02;;;27.20;99.90;;;;;;4953115;29;20050;-89
2022/08/15 09:35:33;;;;;;;17.95;12.10;;;26.90;99.90;;;;;;4955366;29;20047;-90
2022/08/15 09:38:58;;;;;;;18.13;11.10;;;26.70;99.90;;;;;;4954839;29;20054;-91
2022/08/15 09:41:52;;;;;;;18.90;12.70;;;26.70;99.90;;;;;;4899573;29;20139;-90
2022/08/15 09:44:41;;;;;;;19.10;13.15;;;26.70;99.90;;;;;;4914209;29;20127;-92
2022/08/15 09:47:39;;;;;;;19.88;14.32;;;26.50;99.90;;;;;;4897958;29;20420;-96
2022/08/15 09:50:42;;;;;;;18.92;14.63;;;26.30;99.90;;;;;;4931385;29;20138;-94
2022/08/15 09:53:32;;;;;;;21.55;13.93;;;26.10;99.90;;;;;;4955762;29;20047;-86
2022/08/15 09:56:11;;;;;;;21.75;14.27;;;26.40;99.90;;;;;;4939254;29;20066;-88
2022/08/15 09:59:08;;;;;;;18.92;14.00;;;26.30;99.90;;;;;;4953985;29;20083;-87
2022/08/15 10:02:00;;;;;;;20.20;14.30;;;25.90;99.90;;;;;;4937698;29;20074;-85
2022/08/15 10:04:48;;;;;;;19.05;14.13;;;25.90;99.90;;;;;;4954718;29;20102;-86
2022/08/15 10:07:51;;;;;;;19.45;13.55;;;25.90;99.90;;;;;;4954494;29;20197;-86
2022/08/15 10:10:21;;;;;;;19.40;14.07;;;26.00;99.90;;;;;;4936584;29;20055;-85
2022/08/15 10:13:06;;;;;;;18.63;13.70;;;26.10;99.90;;;;;;4953827;29;20043;-84
2022/08/15 10:15:53;;;;;;;18.45;14.50;;;26.00;99.90;;;;;;4936429;29;20135;-84
2022/08/15 10:18:22;;;;;;;20.30;13.63;;;26.00;99.90;;;;;;4953615;29;20381;-85
2022/08/15 10:21:31;;;;;;;17.83;13.60;;;26.10;99.90;;;;;;4953462;29;20126;-85
2022/08/15 10:23:57;;;;;;;22.55;15.07;;;26.30;99.90;;;;;;4941123;29;20495;-84
2022/08/15 10:26:40;;;;;;;20.13;14.40;;;26.30;99.90;;;;;;4936361;29;20051;-84
2022/08/15 10:29:31;;;;;;;20.52;14.68;;;26.60;99.90;;;;;;4953385;28;20058;-84
2022/08/15 10:31:59;;;;;;;19.10;15.25;;;26.60;99.90;;;;;;4937208;29;20078;-83
2022/08/15 10:34:37;;;;;;;20.63;14.80;;;26.70;99.90;;;;;;4953204;29;20054;-83
2022/08/15 10:37:15;;;;;;;19.90;14.40;;;26.60;99.90;;;;;;4937136;29;20209;-83
2022/08/15 10:39:59;;;;;;;20.77;15.10;;;26.60;99.90;;;;;;4937372;29;20051;-85
2022/08/15 10:42:41;;;;;;;20.23;13.93;;;26.60;99.90;;;;;;4953776;29;20058;-82
2022/08/15 10:45:41;;;;;;;20.52;14.98;;;26.70;99.90;;;;;;4937306;29;20369;-82
2022/08/15 10:48:13;;;;;;;19.85;15.13;;;26.70;99.90;;;;;;4935949;29;20083;-82
2022/08/15 10:50:51;;;;;;;19.50;14.52;;;26.70;99.90;;;;;;4936338;29;20043;-83
2022/08/15 10:53:29;;;;;;;20.95;15.57;;;26.70;99.90;;;;;;4936852;29;20069;-83
2022/08/15 10:56:13;;;;;;;20.30;14.00;;;26.70;99.90;;;;;;4936648;29;20051;-83
2022/08/15 10:58:39;;;;;;;20.25;15.88;;;26.80;99.90;;;;;;4939283;29;20059;-83
2022/08/15 11:01:32;;;;;;;20.42;15.32;;;26.60;99.90;;;;;;4953924;29;20039;-83
2022/08/15 11:04:02;;;;;;;18.23;14.47;;;26.80;99.90;;;;;;4935505;29;20059;-83
2022/08/15 11:06:29;;;;;;;21.70;15.88;;;26.80;99.90;;;;;;4936709;29;20301;-83
2022/08/15 11:09:03;;;;;;;21.83;14.50;;;26.70;99.90;;;;;;4958586;28;20074;-83
2022/08/15 11:11:35;;;;;;;21.67;16.00;;;26.60;99.90;;;;;;4955474;28;20051;-82
2022/08/15 11:14:11;;;;;;;22.73;15.93;;;26.80;99.90;;;;;;4973397;28;20050;-83
2022/08/15 11:16:44;;;;;;;24.90;17.17;;;26.70;99.90;;;;;;4955330;28;20376;-83
2022/08/15 11:19:28;;;;;;;22.50;16.60;;;26.90;99.90;;;;;;4956022;28;20050;-82
2022/08/15 11:21:57;;;;;;;22.25;16.20;;;26.60;99.90;;;;;;4951944;28;20097;-82
2022/08/15 11:24:37;;;;;;;23.15;16.05;;;26.80;99.90;;;;;;4954475;28;20142;-83
2022/08/15 11:27:24;;;;;;;21.20;17.52;;;27.00;99.90;;;;;;4955903;28;20054;-84
2022/08/15 11:29:52;;;;;;;21.73;17.17;;;27.20;99.90;;;;;;4972420;28;20090;-84
2022/08/15 11:32:32;;;;;;;23.58;17.73;;;27.10;99.90;;;;;;4972897;28;20450;-84
2022/08/15 11:35:00;;;;;;;22.35;17.50;;;27.20;99.90;;;;;;4972851;28;20101;-83
2022/08/15 11:37:41;;;;;;;23.02;17.83;;;27.20;99.90;;;;;;4954724;28;20078;-83
2022/08/15 11:40:24;;;;;;;22.45;16.92;;;27.30;99.90;;;;;;4957636;28;20047;-83
2022/08/15 11:42:50;;;;;;;25.25;18.33;;;27.50;99.90;;;;;;4958862;28;20126;-83
2022/08/15 11:45:16;;;;;;;21.92;16.45;;;28.00;99.90;;;;;;4958451;28;20039;-83
2022/08/15 11:47:51;;;;;;;26.35;17.23;;;28.00;99.90;;;;;;4976202;28;20487;-86
2022/08/15 11:50:30;;;;;;;23.73;17.00;;;28.50;99.90;;;;;;4958898;28;20443;-85
2022/08/15 11:53:02;;;;;;;24.65;18.27;;;28.90;99.90;;;;;;4959377;28;20094;-83
2022/08/15 11:55:27;;;;;;;22.77;17.20;;;28.80;99.70;;;;;;4974990;28;20430;-86
2022/08/15 11:58:13;;;;;;;22.40;17.13;;;28.70;99.90;;;;;;4977439;28;20050;-87
2022/08/15 12:00:44;;;;;;;25.88;20.15;;;28.80;99.60;;;;;;4976708;28;20046;-87
2022/08/15 12:03:39;;;;;;;23.15;17.60;;;29.10;99.10;;;;;;4959230;28;20089;-88
2022/08/15 12:06:13;;;;;;;24.80;18.15;;;29.30;99.20;;;;;;4946643;28;20567;-89
2022/08/15 12:08:42;;;;;;;23.35;18.60;;;29.40;98.60;;;;;;4962241;28;20101;-86
2022/08/15 12:11:14;;;;;;;23.45;18.38;;;29.40;99.10;;;;;;4975566;28;20046;-86
2022/08/15 12:13:59;;;;;;;25.25;18.85;;;29.20;99.20;;;;;;4960409;28;20053;-87
2022/08/15 12:16:31;;;;;;;26.83;17.58;;;29.10;98.60;;;;;;4966827;28;20046;-86
2022/08/15 12:19:03;;;;;;;26.58;18.15;;;29.00;99.20;;;;;;4982186;28;20078;-87
2022/08/15 12:21:29;;;;;;;24.80;16.83;;;28.90;99.30;;;;;;4959308;28;20493;-88
2022/08/15 12:24:00;;;;;;;24.48;18.13;;;28.70;99.00;;;;;;4979963;28;20054;-88
2022/08/15 12:26:29;;;;;;;24.40;18.13;;;28.50;99.20;;;;;;4975136;28;20052;-88
2022/08/15 12:28:57;;;;;;;24.33;16.85;;;28.40;99.30;;;;;;4975836;28;20049;-87
2022/08/15 12:31:34;;;;;;;24.15;19.02;;;28.40;99.60;;;;;;4957888;28;20054;-88
2022/08/15 12:34:17;;;;;;;24.63;17.77;;;28.30;99.70;;;;;;4957772;28;20376;-88
2022/08/15 12:36:44;;;;;;;26.90;18.77;;;28.40;99.90;;;;;;4987735;28;20047;-86
2022/08/15 12:39:13;;;;;;;25.02;18.35;;;28.30;99.90;;;;;;4985223;28;20535;-88
2022/08/15 12:41:55;;;;;;;23.30;18.25;;;28.40;99.90;;;;;;4958280;28;20502;-88
2022/08/15 12:44:28;;;;;;;22.00;16.80;;;28.50;99.70;;;;;;4975425;28;20061;-88
2022/08/15 12:47:14;;;;;;;25.27;18.88;;;28.40;99.60;;;;;;4957410;28;20047;-89
2022/08/15 12:49:40;;;;;;;23.80;17.45;;;28.20;99.30;;;;;;4958521;28;20043;-88
2022/08/15 12:52:05;;;;;;;24.20;18.27;;;28.20;99.90;;;;;;4957373;28;20039;-87
2022/08/15 12:54:44;;;;;;;22.27;17.15;;;28.20;99.80;;;;;;4974076;28;20049;-88
2022/08/15 12:57:09;;;;;;;21.98;16.60;;;28.60;99.60;;;;;;4957969;28;20039;-88
2022/08/15 12:59:35;;;;;;;22.67;15.77;;;28.10;99.90;;;;;;4960367;23;20427;-87
2022/08/15 13:02:17;;;;;;;21.35;15.85;;;28.10;99.90;;;;;;4955125;29;20047;-88
2022/08/15 13:04:49;;;;;;;21.40;15.27;;;28.00;99.90;;;;;;4955790;29;20517;-87
2022/08/15 13:07:30;;;;;;;19.23;13.80;;;27.90;99.90;;;;;;4948348;29;20503;-88
2022/08/15 13:09:56;;;;;;;19.75;13.15;;;28.00;99.90;;;;;;4937430;29;20067;-87
2022/08/15 13:12:24;;;;;;;17.75;13.73;;;27.90;99.90;;;;;;4937910;29;20051;-87
2022/08/15 13:15:06;;;;;;;21.48;14.18;;;27.90;99.90;;;;;;4936997;29;20181;-85
2022/08/15 13:17:31;;;;;;;17.13;13.35;;;27.90;99.90;;;;;;4935794;29;20050;-86